Aviation Digital Data Service (ADDS)

Output produced by METARs form (0330 UTC 17 September 2014)
found at http://aviationweather.gov/adds/metars/
 
KAEX 170228Z 1702/1724 15005KT P6SM VCSH SCT020 BKN050 
     TEMPO 1702/1704 P6SM -SHRA BKN020 
     FM170400 VRB03KT P6SM BKN200 
     FM171800 12006KT P6SM VCTS SCT050CB BKN120